createdAt,value
2017-09-21T00:02:16.365Z,99498.56
2017-09-21T00:04:43.927Z,99497.12
2017-09-21T00:07:11.429Z,99504.80
2017-09-21T00:09:38.937Z,99501.69
2017-09-21T00:12:06.397Z,99495.58
2017-09-21T00:14:33.858Z,99493.98
2017-09-21T00:17:01.416Z,99499.94
2017-09-21T00:19:28.889Z,99487.55
2017-09-21T00:21:56.359Z,99488.81
2017-09-21T00:24:24.204Z,99488.86
2017-09-21T00:26:51.759Z,99487.60
2017-09-21T00:29:19.228Z,99489.12
2017-09-21T00:31:46.699Z,99486.73
2017-09-21T00:34:14.156Z,99489.83
2017-09-21T00:36:41.994Z,99491.25
2017-09-21T00:39:09.456Z,99500.78
2017-09-21T00:41:36.910Z,99495.38
2017-09-21T00:44:04.374Z,99499.97
2017-09-21T00:46:31.840Z,99498.37
2017-09-21T00:48:59.305Z,99489.63
2017-09-21T00:51:26.766Z,99487.14
2017-09-21T00:53:54.607Z,99487.30
2017-09-21T00:56:22.069Z,99489.23
2017-09-21T00:58:49.530Z,99486.66
2017-09-21T01:01:17.006Z,99482.42
2017-09-21T01:03:44.463Z,99486.12
2017-09-21T01:06:11.930Z,99480.34
2017-09-21T01:08:39.454Z,99478.19
2017-09-21T01:11:06.934Z,99482.67
2017-09-21T01:13:34.391Z,99477.91
2017-09-21T01:16:02.262Z,99476.45
2017-09-21T01:18:29.723Z,99481.49
2017-09-21T01:20:57.191Z,99482.25
2017-09-21T01:23:24.660Z,99491.19
2017-09-21T01:25:52.118Z,99487.95
2017-09-21T01:28:20.443Z,99489.94
2017-09-21T01:30:47.904Z,99493.10
2017-09-21T01:33:15.388Z,99495.31
2017-09-21T01:35:42.852Z,99491.56
2017-09-21T01:38:10.328Z,99491.52
2017-09-21T01:40:37.785Z,99494.63
2017-09-21T01:43:05.518Z,99496.14
2017-09-21T01:45:32.980Z,99495.30
2017-09-21T01:48:00.435Z,99489.67
2017-09-21T01:50:27.921Z,99492.35
2017-09-21T01:52:55.379Z,99490.28
2017-09-21T01:55:22.850Z,99486.33
2017-09-21T01:57:50.298Z,99484.17
2017-09-21T02:00:17.759Z,99485.55
2017-09-21T02:02:45.212Z,99489.69
2017-09-21T02:05:12.682Z,99486.73
2017-09-21T02:07:40.220Z,99486.56
2017-09-21T02:10:08.043Z,99483.20
2017-09-21T02:12:35.495Z,99479.73
2017-09-21T02:15:02.958Z,99484.63
2017-09-21T02:17:30.436Z,99487.86
2017-09-21T02:19:57.892Z,99478.38
2017-09-21T02:22:25.428Z,99474.59
2017-09-21T02:24:52.886Z,99474.50
2017-09-21T02:27:20.741Z,99479.39
2017-09-21T02:29:48.201Z,99485.73
2017-09-21T02:32:15.651Z,99482.45
2017-09-21T02:34:43.262Z,99480.82
2017-09-21T02:37:10.722Z,99472.94
2017-09-21T02:39:38.184Z,99473.49
2017-09-21T02:42:05.689Z,99470.08
2017-09-21T02:44:33.455Z,99470.13
2017-09-21T02:47:00.918Z,99470.08
2017-09-21T02:49:28.383Z,99466.36
2017-09-21T02:51:55.926Z,99464.09
2017-09-21T02:54:23.479Z,99470.67
2017-09-21T02:56:50.936Z,99474.67
2017-09-21T02:59:18.389Z,99465.05
2017-09-21T03:01:46.140Z,99472.28
2017-09-21T03:04:13.606Z,99472.47
2017-09-21T03:06:41.073Z,99479.57
2017-09-21T03:09:08.641Z,99474.45
2017-09-21T03:11:36.218Z,99473.61
2017-09-21T03:14:03.768Z,99470.66
2017-09-21T03:16:31.319Z,99466.06
2017-09-21T03:18:59.083Z,99466.63
2017-09-21T03:21:26.567Z,99466.96
2017-09-21T03:23:54.023Z,99463.86
2017-09-21T03:26:21.487Z,99466.91
2017-09-21T03:28:49.014Z,99466.86
2017-09-21T03:31:16.489Z,99463.25
2017-09-21T03:33:43.955Z,99457.70
2017-09-21T03:36:11.438Z,99460.52
2017-09-21T03:38:38.900Z,99462.67
2017-09-21T03:41:06.716Z,99464.81
2017-09-21T03:43:34.176Z,99463.74
2017-09-21T03:46:01.733Z,99469.83
2017-09-21T03:48:29.214Z,99464.92
2017-09-21T03:50:56.693Z,99462.89
2017-09-21T03:53:24.509Z,99462.86
2017-09-21T03:55:51.976Z,99465.19
2017-09-21T03:58:19.511Z,99464.39
2017-09-21T04:00:46.982Z,99461.23
2017-09-21T04:03:14.460Z,99448.25
2017-09-21T04:05:41.950Z,99454.34
2017-09-21T04:08:09.430Z,99455.91
2017-09-21T04:10:36.896Z,99456.17
2017-09-21T04:13:04.352Z,99461.00
2017-09-21T04:15:31.814Z,99466.20
2017-09-21T04:17:59.272Z,99467.16
2017-09-21T04:20:26.763Z,99468.28
2017-09-21T04:22:54.355Z,99469.90
2017-09-21T04:25:21.825Z,99466.91
2017-09-21T04:27:49.303Z,99474.69
2017-09-21T04:30:17.087Z,99477.80
2017-09-21T04:32:44.543Z,99477.89
2017-09-21T04:35:12.033Z,99481.98
2017-09-21T04:37:39.521Z,99482.50
2017-09-21T04:40:06.976Z,99480.77
2017-09-21T04:42:34.439Z,99488.59
2017-09-21T04:45:01.914Z,99482.44
2017-09-21T04:47:29.382Z,99482.39
2017-09-21T04:49:56.848Z,99491.30
2017-09-21T04:52:24.634Z,99492.95
2017-09-21T04:54:52.106Z,99498.05
2017-09-21T04:57:19.585Z,99499.11
2017-09-21T04:59:47.078Z,99498.92
2017-09-21T05:02:14.542Z,99502.45
2017-09-21T05:04:42.413Z,99501.08
2017-09-21T05:07:09.954Z,99501.27
2017-09-21T05:09:37.411Z,99488.46
2017-09-21T05:12:05.052Z,99493.38
2017-09-21T05:14:32.563Z,99494.23
2017-09-21T05:17:00.051Z,99493.09
2017-09-21T05:19:27.547Z,99500.66
2017-09-21T05:21:55.015Z,99494.33
2017-09-21T05:24:22.510Z,99492.35
2017-09-21T05:26:50.344Z,99498.22
2017-09-21T05:29:17.889Z,99498.74
2017-09-21T05:31:45.469Z,99501.38
2017-09-21T05:34:12.955Z,99496.67
2017-09-21T05:36:40.504Z,99493.14
2017-09-21T05:39:07.995Z,99498.69
2017-09-21T05:41:35.495Z,99499.34
2017-09-21T05:44:02.964Z,99495.88
2017-09-21T05:46:30.423Z,99497.27
2017-09-21T05:48:58.299Z,99496.01
2017-09-21T05:51:25.760Z,99499.90
2017-09-21T05:53:53.241Z,99496.85
2017-09-21T05:56:20.727Z,99497.03
2017-09-21T05:58:48.192Z,99490.56
2017-09-21T06:01:15.663Z,99493.25
2017-09-21T06:03:43.117Z,99501.98
2017-09-21T06:06:10.883Z,99503.29
2017-09-21T06:08:38.512Z,99506.39
2017-09-21T06:11:05.971Z,99508.97
2017-09-21T06:13:33.460Z,99517.52
2017-09-21T06:16:00.958Z,99511.52
2017-09-21T06:18:28.466Z,99515.41
2017-09-21T06:20:55.919Z,99518.83
2017-09-21T06:23:23.380Z,99526.11
2017-09-21T06:25:50.842Z,99523.91
2017-09-21T06:28:18.625Z,99522.95
2017-09-21T06:30:46.112Z,99516.44
2017-09-21T06:33:13.576Z,99518.97
2017-09-21T06:35:41.041Z,99518.45
2017-09-21T06:38:08.509Z,99520.19
2017-09-21T06:40:35.991Z,99519.25
2017-09-21T06:43:03.455Z,99516.91
2017-09-21T06:45:31.338Z,99520.70
2017-09-21T06:47:58.805Z,99522.62
2017-09-21T06:50:26.264Z,99511.38
2017-09-21T06:52:53.740Z,99515.70
2017-09-21T06:55:21.199Z,99517.89
2017-09-21T06:57:48.667Z,99512.20
2017-09-21T07:00:16.116Z,99516.52
2017-09-21T07:02:43.632Z,99519.55
2017-09-21T07:05:11.199Z,99514.59
2017-09-21T07:07:39.042Z,99519.14
2017-09-21T07:10:06.523Z,99519.83
2017-09-21T07:12:34.055Z,99522.03
2017-09-21T07:15:01.564Z,99525.16
2017-09-21T07:17:29.040Z,99525.97
2017-09-21T07:19:56.529Z,99526.47
2017-09-21T07:22:24.002Z,99526.09
2017-09-21T07:24:51.930Z,99519.65
2017-09-21T07:27:19.406Z,99528.72
2017-09-21T07:29:46.867Z,99525.80
2017-09-21T07:32:14.356Z,99524.35
2017-09-21T07:34:41.833Z,99529.66
2017-09-21T07:37:09.346Z,99524.03
2017-09-21T07:39:36.790Z,99527.85
2017-09-21T07:42:04.368Z,99536.40
2017-09-21T07:44:31.828Z,99533.80
2017-09-21T07:46:59.391Z,99529.30
2017-09-21T07:49:26.855Z,99535.52
2017-09-21T07:51:54.327Z,99531.07
2017-09-21T07:54:21.818Z,99538.77
2017-09-21T07:56:49.296Z,99535.89
2017-09-21T07:59:17.093Z,99534.74
2017-09-21T08:01:44.565Z,99533.14
2017-09-21T08:04:12.091Z,99532.05
2017-09-21T08:06:39.560Z,99535.49
2017-09-21T08:09:07.040Z,99530.50
2017-09-21T08:11:34.538Z,99536.37
2017-09-21T08:14:02.006Z,99543.09
2017-09-21T08:16:29.481Z,99542.27
2017-09-21T08:18:56.939Z,99544.37
2017-09-21T08:21:24.421Z,99546.86
2017-09-21T08:23:51.878Z,99550.22
2017-09-21T08:26:19.728Z,99546.41
2017-09-21T08:28:47.209Z,99542.81
2017-09-21T08:31:14.686Z,99538.77
2017-09-21T08:33:42.333Z,99549.39
2017-09-21T08:36:09.800Z,99557.03
2017-09-21T08:38:37.301Z,99553.80
2017-09-21T08:41:04.766Z,99554.06
2017-09-21T08:43:32.232Z,99550.55
2017-09-21T08:45:59.779Z,99548.19
2017-09-21T08:48:27.512Z,99549.80
2017-09-21T08:50:55.009Z,99552.64
2017-09-21T08:53:22.468Z,99545.22
2017-09-21T08:55:49.936Z,99546.27
2017-09-21T08:58:17.422Z,99544.33
2017-09-21T09:00:44.935Z,99546.39
2017-09-21T09:03:12.408Z,99544.17
2017-09-21T09:05:39.889Z,99537.84
2017-09-21T09:08:07.359Z,99536.41
2017-09-21T09:10:34.844Z,99539.20
2017-09-21T09:13:03.015Z,99540.88
2017-09-21T09:15:30.810Z,99543.72
2017-09-21T09:17:58.284Z,99543.63
2017-09-21T09:20:25.760Z,99542.21
2017-09-21T09:22:53.278Z,99541.31
2017-09-21T09:25:20.737Z,99546.89
2017-09-21T09:27:48.223Z,99544.44
2017-09-21T09:30:15.695Z,99543.08
2017-09-21T09:32:43.174Z,99541.55
2017-09-21T09:35:10.645Z,99539.45
2017-09-21T09:37:38.420Z,99536.45
2017-09-21T09:40:05.995Z,99538.39
2017-09-21T09:42:33.498Z,99541.11
2017-09-21T09:45:01.016Z,99535.25
2017-09-21T09:47:28.494Z,99531.77
2017-09-21T09:49:55.979Z,99524.38
2017-09-21T09:52:23.466Z,99527.48
2017-09-21T09:54:50.976Z,99524.68
2017-09-21T09:57:18.494Z,99520.77
2017-09-21T09:59:46.274Z,99519.90
2017-09-21T10:02:13.735Z,99518.41
2017-09-21T10:04:41.203Z,99516.02
2017-09-21T10:07:08.683Z,99518.30
2017-09-21T10:09:36.148Z,99513.13
2017-09-21T10:12:04.079Z,99517.67
2017-09-21T10:14:31.533Z,99508.58
2017-09-21T10:16:59.007Z,99512.13
2017-09-21T10:19:26.486Z,99512.35
2017-09-21T10:21:53.961Z,99512.77
2017-09-21T10:24:21.437Z,99513.37
2017-09-21T10:26:48.950Z,99504.48
2017-09-21T10:29:16.705Z,99512.00
2017-09-21T10:31:44.175Z,99507.38
2017-09-21T10:34:11.689Z,99507.22
2017-09-21T10:36:39.173Z,99512.49
2017-09-21T10:39:06.655Z,99507.81
2017-09-21T10:41:34.142Z,99507.14
2017-09-21T10:44:01.602Z,99504.27
2017-09-21T10:46:29.105Z,99501.44
2017-09-21T10:48:56.584Z,99499.97
2017-09-21T10:51:24.391Z,99502.61
2017-09-21T10:53:51.860Z,99491.26
2017-09-21T10:56:19.338Z,99492.91
2017-09-21T10:58:46.832Z,99487.48
2017-09-21T11:01:14.290Z,99481.19
2017-09-21T11:03:42.106Z,99478.34
2017-09-21T11:06:09.582Z,99475.25
2017-09-21T11:08:37.053Z,99473.78
2017-09-21T11:11:04.559Z,99475.60
2017-09-21T11:13:32.031Z,99468.82
2017-09-21T11:15:59.519Z,99473.02
2017-09-21T11:18:26.994Z,99470.08
2017-09-21T11:20:54.815Z,99465.20
2017-09-21T11:23:22.306Z,99458.14
2017-09-21T11:25:49.787Z,99461.75
2017-09-21T11:28:18.006Z,99451.59
2017-09-21T11:30:45.480Z,99453.91
2017-09-21T11:33:12.966Z,99446.07
2017-09-21T11:35:40.457Z,99456.50
2017-09-21T11:38:07.936Z,99448.31
2017-09-21T11:40:35.489Z,99451.06
2017-09-21T11:43:02.972Z,99447.59
2017-09-21T11:45:30.451Z,99441.52
2017-09-21T11:47:57.927Z,99447.45
2017-09-21T11:50:25.404Z,99441.23
2017-09-21T11:52:52.890Z,99436.59
2017-09-21T11:55:20.356Z,99432.90
2017-09-21T11:57:47.896Z,99425.74
2017-09-21T12:00:15.389Z,99427.86
2017-09-21T12:02:42.896Z,99423.83
2017-09-21T12:05:10.407Z,99425.27
2017-09-21T12:07:38.226Z,99421.88
2017-09-21T12:10:05.728Z,99421.66
2017-09-21T12:12:33.204Z,99421.92
2017-09-21T12:15:00.720Z,99416.53
2017-09-21T12:17:29.675Z,99420.38
2017-09-21T12:19:57.216Z,99418.47
2017-09-21T12:22:24.759Z,99414.77
2017-09-21T12:24:52.585Z,99417.00
2017-09-21T12:27:20.074Z,99412.05
2017-09-21T12:29:47.549Z,99411.71
2017-09-21T12:32:15.062Z,99408.91
2017-09-21T12:34:42.608Z,99403.30
2017-09-21T12:37:10.459Z,99406.48
2017-09-21T12:39:37.975Z,99398.59
2017-09-21T12:42:05.464Z,99398.55
2017-09-21T12:44:33.072Z,99396.78
2017-09-21T12:47:01.070Z,99394.04
2017-09-21T12:49:28.547Z,99384.20
2017-09-21T12:51:56.052Z,99387.62
2017-09-21T12:54:23.802Z,99383.81
2017-09-21T12:56:51.284Z,99380.62
2017-09-21T12:59:18.760Z,99380.77
2017-09-21T13:01:46.292Z,99380.30
2017-09-21T13:04:13.767Z,99378.25
2017-09-21T13:06:41.266Z,99374.96
2017-09-21T13:09:08.745Z,99377.19
2017-09-21T13:11:36.240Z,99368.45
2017-09-21T13:14:03.698Z,99368.59
2017-09-21T13:16:31.174Z,99372.59
2017-09-21T13:18:58.635Z,99368.89
2017-09-21T13:21:26.365Z,99371.19
2017-09-21T13:23:53.839Z,99359.73
2017-09-21T13:26:21.680Z,99360.76
2017-09-21T13:28:49.231Z,99353.23
2017-09-21T13:31:16.706Z,99351.30
2017-09-21T13:33:44.216Z,99352.95
2017-09-21T13:36:11.675Z,99345.37
2017-09-21T13:38:39.474Z,99347.66
2017-09-21T13:41:06.941Z,99349.23
2017-09-21T13:43:34.456Z,99349.31
2017-09-21T13:46:01.931Z,99344.13
2017-09-21T13:48:29.397Z,99338.05
2017-09-21T13:50:56.996Z,99340.54
2017-09-21T13:53:24.471Z,99342.41
2017-09-21T13:55:51.976Z,99339.55
2017-09-21T13:58:19.456Z,99339.79
2017-09-21T14:00:46.973Z,99346.08
2017-09-21T14:03:14.467Z,99335.91
2017-09-21T14:05:41.961Z,99331.38
2017-09-21T14:08:09.422Z,99330.55
2017-09-21T14:10:37.190Z,99327.49
2017-09-21T14:13:04.686Z,99339.24
2017-09-21T14:15:32.188Z,99328.13
2017-09-21T14:17:59.679Z,99329.37
2017-09-21T14:20:27.141Z,99321.20
2017-09-21T14:22:54.626Z,99323.86
2017-09-21T14:25:22.141Z,99323.46
2017-09-21T14:27:49.612Z,99323.77
2017-09-21T14:30:17.215Z,99317.13
2017-09-21T14:32:45.192Z,99313.78
2017-09-21T14:35:12.734Z,99320.92
2017-09-21T14:37:41.284Z,99313.70
2017-09-21T14:40:08.789Z,99311.30
2017-09-21T14:42:36.292Z,99309.61
2017-09-21T14:45:03.805Z,99305.48
2017-09-21T14:47:31.306Z,99307.16
2017-09-21T14:49:59.247Z,99308.34
2017-09-21T14:52:26.803Z,99305.63
2017-09-21T14:54:54.282Z,99313.41
2017-09-21T14:57:21.761Z,99301.76
2017-09-21T14:59:49.222Z,99304.21
2017-09-21T15:02:16.715Z,99300.95
2017-09-21T15:04:44.198Z,99304.21
2017-09-21T15:07:11.698Z,99301.22
2017-09-21T15:09:39.154Z,99297.88
2017-09-21T15:12:06.679Z,99293.57
2017-09-21T15:14:34.149Z,99295.81
2017-09-21T15:17:01.615Z,99290.64
2017-09-21T15:19:29.064Z,99300.66
2017-09-21T15:21:56.554Z,99293.71
2017-09-21T15:24:24.017Z,99293.95
2017-09-21T15:26:51.876Z,99292.26
2017-09-21T15:29:19.361Z,99290.61
2017-09-21T15:31:46.838Z,99290.63
2017-09-21T15:34:14.348Z,99290.02
2017-09-21T15:36:41.846Z,99291.33
2017-09-21T15:39:09.315Z,99288.33
2017-09-21T15:41:36.781Z,99291.34
2017-09-21T15:44:04.234Z,99291.63
2017-09-21T15:46:31.699Z,99292.84
2017-09-21T15:48:59.254Z,99289.70
2017-09-21T15:51:26.712Z,99288.15
2017-09-21T15:53:54.258Z,99291.81
2017-09-21T15:56:21.816Z,99297.34
2017-09-21T15:58:49.645Z,99296.91
2017-09-21T16:01:17.137Z,99296.92
2017-09-21T16:03:44.640Z,99293.03
2017-09-21T16:06:12.111Z,99292.35
2017-09-21T16:08:39.584Z,99292.83
2017-09-21T16:11:07.072Z,99288.72
2017-09-21T16:13:34.551Z,99288.86
2017-09-21T16:16:02.072Z,99293.31
2017-09-21T16:18:29.553Z,99290.53
2017-09-21T16:20:57.084Z,99288.64
2017-09-21T16:23:24.601Z,99292.11
2017-09-21T16:25:53.097Z,99293.16
2017-09-21T16:28:20.591Z,99286.72
2017-09-21T16:30:48.080Z,99285.07
2017-09-21T16:33:15.586Z,99291.38
2017-09-21T16:35:43.107Z,99286.14
2017-09-21T16:38:10.921Z,99286.86
2017-09-21T16:40:38.380Z,99284.98
2017-09-21T16:43:05.838Z,99286.61
2017-09-21T16:45:33.312Z,99287.59
2017-09-21T16:48:00.797Z,99285.55
2017-09-21T16:50:28.330Z,99284.58
2017-09-21T16:52:55.800Z,99291.41
2017-09-21T16:55:23.627Z,99287.89
2017-09-21T16:57:51.172Z,99285.24
2017-09-21T17:00:18.675Z,99293.32
2017-09-21T17:02:46.177Z,99290.83
2017-09-21T17:05:13.646Z,99286.53
2017-09-21T17:07:41.202Z,99283.73
2017-09-21T17:10:08.663Z,99285.00
2017-09-21T17:12:36.431Z,99281.81
2017-09-21T17:15:03.904Z,99277.33
2017-09-21T17:17:31.420Z,99279.27
2017-09-21T17:19:58.908Z,99279.62
2017-09-21T17:22:26.444Z,99280.80
2017-09-21T17:24:53.961Z,99283.12
2017-09-21T17:27:21.427Z,99287.22
2017-09-21T17:29:48.982Z,99289.06
2017-09-21T17:32:16.444Z,99285.91
2017-09-21T17:34:44.291Z,99291.55
2017-09-21T17:37:11.780Z,99291.21
2017-09-21T17:39:39.250Z,99296.20
2017-09-21T17:42:06.752Z,99296.77
2017-09-21T17:44:34.206Z,99299.03
2017-09-21T17:47:01.697Z,99292.95
2017-09-21T17:49:29.155Z,99294.79
2017-09-21T17:51:56.628Z,99298.20
2017-09-21T17:54:24.224Z,99300.58
2017-09-21T17:56:51.977Z,99305.91
2017-09-21T17:59:19.448Z,99308.28
2017-09-21T18:01:46.929Z,99310.61
2017-09-21T18:04:14.429Z,99309.69
2017-09-21T18:06:41.910Z,99312.25
2017-09-21T18:09:09.403Z,99307.86
2017-09-21T18:11:36.879Z,99310.02
2017-09-21T18:14:04.830Z,99309.84
2017-09-21T18:16:32.320Z,99310.91
2017-09-21T18:18:59.800Z,99306.50
2017-09-21T18:21:27.264Z,99312.55
2017-09-21T18:23:54.783Z,99320.84
2017-09-21T18:26:22.318Z,99309.72
2017-09-21T18:28:49.828Z,99313.11
2017-09-21T18:31:17.455Z,99315.11
2017-09-21T18:33:44.951Z,99322.31
2017-09-21T18:36:12.496Z,99329.09
2017-09-21T18:38:40.009Z,99327.59
2017-09-21T18:41:07.772Z,99322.54
2017-09-21T18:43:35.241Z,99327.58
2017-09-21T18:46:02.710Z,99331.80
2017-09-21T18:48:30.187Z,99330.16
2017-09-21T18:50:57.649Z,99329.50
2017-09-21T18:53:25.483Z,99329.65
2017-09-21T18:55:53.016Z,99327.05
2017-09-21T18:58:20.487Z,99324.66
2017-09-21T19:00:47.960Z,99328.11
2017-09-21T19:03:15.441Z,99325.30
2017-09-21T19:05:42.933Z,99325.59
2017-09-21T19:08:10.401Z,99328.77
2017-09-21T19:10:38.252Z,99331.05
2017-09-21T19:13:05.716Z,99330.94
2017-09-21T19:15:33.174Z,99328.67
2017-09-21T19:18:00.659Z,99325.33
2017-09-21T19:20:28.126Z,99329.41
2017-09-21T19:22:55.633Z,99324.00
2017-09-21T19:25:23.127Z,99323.95
2017-09-21T19:27:50.616Z,99322.34
2017-09-21T19:30:18.112Z,99325.03
2017-09-21T19:32:45.637Z,99323.77
2017-09-21T19:35:13.158Z,99324.50
2017-09-21T19:37:40.961Z,99329.34
2017-09-21T19:40:08.462Z,99328.25
2017-09-21T19:42:35.934Z,99327.12
2017-09-21T19:45:03.449Z,99331.83
2017-09-21T19:47:31.153Z,99326.97
2017-09-21T19:49:58.663Z,99322.53
2017-09-21T19:52:26.182Z,99325.45
2017-09-21T19:54:53.667Z,99330.44
2017-09-21T19:57:21.274Z,99330.64
2017-09-21T19:59:48.787Z,99330.63
2017-09-21T20:02:16.294Z,99328.36
2017-09-21T20:04:44.180Z,99322.47
2017-09-21T20:07:11.668Z,99321.38
2017-09-21T20:09:39.143Z,99321.94
2017-09-21T20:12:06.621Z,99320.36
2017-09-21T20:14:34.095Z,99322.83
2017-09-21T20:17:01.581Z,99326.86
2017-09-21T20:19:29.159Z,99321.57
2017-09-21T20:21:56.659Z,99317.66
2017-09-21T20:24:24.145Z,99323.97
2017-09-21T20:26:51.922Z,99324.94
2017-09-21T20:29:19.441Z,99328.56
2017-09-21T20:31:46.950Z,99324.16
2017-09-21T20:34:14.446Z,99333.20
2017-09-21T20:36:41.938Z,99330.37
2017-09-21T20:39:09.436Z,99329.34
2017-09-21T20:41:36.909Z,99328.81
2017-09-21T20:44:04.430Z,99327.56
2017-09-21T20:46:31.934Z,99327.84
2017-09-21T20:48:59.407Z,99330.50
2017-09-21T20:51:26.910Z,99329.83
2017-09-21T20:53:54.746Z,99328.33
2017-09-21T20:56:22.215Z,99327.06
2017-09-21T20:58:49.728Z,99326.17
2017-09-21T21:01:17.234Z,99325.02
2017-09-21T21:03:44.769Z,99320.02
2017-09-21T21:06:12.360Z,99324.48
2017-09-21T21:08:39.856Z,99319.35
2017-09-21T21:11:07.327Z,99316.54
2017-09-21T21:13:34.844Z,99316.47
2017-09-21T21:16:02.655Z,99307.21
2017-09-21T21:18:30.157Z,99316.41
2017-09-21T21:20:57.667Z,99311.72
2017-09-21T21:23:25.158Z,99311.23
2017-09-21T21:25:52.618Z,99314.50
2017-09-21T21:28:20.095Z,99314.92
2017-09-21T21:30:47.569Z,99316.24
2017-09-21T21:33:15.063Z,99312.20
2017-09-21T21:35:42.553Z,99316.01
2017-09-21T21:38:10.028Z,99317.92
2017-09-21T21:40:37.588Z,99317.84
2017-09-21T21:43:05.059Z,99314.85
2017-09-21T21:45:32.563Z,99320.02
2017-09-21T21:48:00.023Z,99317.33
2017-09-21T21:50:27.943Z,99320.94
2017-09-21T21:52:55.424Z,99313.81
2017-09-21T21:55:22.961Z,99318.16
2017-09-21T21:57:50.472Z,99325.90
2017-09-21T22:00:17.942Z,99324.66
2017-09-21T22:02:45.435Z,99328.72
2017-09-21T22:05:12.914Z,99334.98
2017-09-21T22:07:40.679Z,99329.86
2017-09-21T22:10:08.133Z,99326.61
2017-09-21T22:12:35.598Z,99322.22
2017-09-21T22:15:03.100Z,99325.42
2017-09-21T22:17:30.593Z,99321.26
2017-09-21T22:19:58.370Z,99321.06
2017-09-21T22:22:25.838Z,99322.39
2017-09-21T22:24:53.325Z,99319.33
2017-09-21T22:27:20.802Z,99318.84
2017-09-21T22:29:48.307Z,99315.11
2017-09-21T22:32:15.815Z,99317.47
2017-09-21T22:34:43.293Z,99312.59
2017-09-21T22:37:11.097Z,99310.59
2017-09-21T22:39:38.579Z,99312.15
2017-09-21T22:42:06.039Z,99309.63
2017-09-21T22:44:33.516Z,99310.60
2017-09-21T22:47:00.979Z,99310.34
2017-09-21T22:49:28.463Z,99315.86
2017-09-21T22:51:55.929Z,99315.57
2017-09-21T22:54:23.393Z,99311.28
2017-09-21T22:56:50.855Z,99316.16
2017-09-21T22:59:18.622Z,99316.77
2017-09-21T23:01:46.090Z,99319.83
2017-09-21T23:04:13.586Z,99313.22
2017-09-21T23:06:41.060Z,99310.51
2017-09-21T23:09:08.518Z,99320.31
2017-09-21T23:11:35.995Z,99309.32
2017-09-21T23:14:03.492Z,99316.28
2017-09-21T23:16:30.978Z,99312.06
2017-09-21T23:18:58.443Z,99310.32
2017-09-21T23:21:25.916Z,99313.58
2017-09-21T23:23:53.375Z,99315.58
2017-09-21T23:26:21.178Z,99314.41
2017-09-21T23:28:48.643Z,99312.09
2017-09-21T23:31:16.105Z,99316.34
2017-09-21T23:33:43.585Z,99320.70
2017-09-21T23:36:11.118Z,99321.60
2017-09-21T23:38:38.602Z,99327.17
2017-09-21T23:41:06.059Z,99326.20
2017-09-21T23:43:33.537Z,99328.78
2017-09-21T23:46:01.013Z,99325.88
2017-09-21T23:48:28.499Z,99326.07
2017-09-21T23:50:55.981Z,99326.17
2017-09-21T23:53:23.852Z,99325.04
2017-09-21T23:55:51.322Z,99322.87
2017-09-21T23:58:18.774Z,99325.74
